Airfield :
LOGIN :

Register | Disclaimer

   EN    FR    IT 

 










Legend :    VFR   Marginal VFR   IFR   Intensive IFR   Very Intensive IFR
Visi :
Ceiling :
>= 8 km
>= 3000ft
5 to 8 km
1000 to 3000 ft
1500m to 5 km
500 to 1000 ft
800 to 1500m
200 to 500 ft
< 800m
< 200 ft
Symbols :   Thunderstorms  Fog  Heavy snow  Heavy precipitations  Wind > 20 kt
SIGMETs :     Misc.  Thunderstorms  Icing  Turbulence  Mountain Waves  Volcanic Ashes






- Airport Elevation : 40 ft
- IATA code : RMI


LIPR - Federico Fellini Int. Rimini

CURRENT METAR :
  • 060620Z 19002KT 5000 BR SCT050 03/02 Q1026

EXPIRED METARs :
  • 060550Z AUTO 20002KT 3500 BR SCT057/// BKN085/// 03/02 Q1026
  • 060520Z AUTO 22003KT 6000 BKN062/// 03/02 Q1026
  • 060450Z AUTO 20003KT 180V240 5000 BR BKN064/// 04/02 Q1026
  • 060420Z AUTO VRB02KT 4900 -RA BR FEW018/// SCT048/// BKN055/// 04/02 Q1025
  • 060350Z AUTO 21003KT 7000 BKN068/// BKN100/// 04/02 Q1026

TAF TAF LIPR
Valid from the 06 at 06:00 until the 06 at 15:00 UTC


060500Z 0606/0615 VRB04KT 7000 BKN060



MET'MAP, your aeronautical weather chart ! - Copyright ORBIFLY December 2007 - Disclaimer

ORBIFLY MET'MAP TEAM :

Programming & Development : Alexandra Zaïnal
Concept & original design : Baudouin d'Aumeries
Assistance for programming : Marc-Olivier Méhu
Technical & hardware support : Manuel Goepfert

Contact : metmap@orbifly.com




SOURCES & CREDITS :

   NOAA